sensor_id;sensor_type;location;lat;lon;timestamp;temperature;humidity
8332;DHT22;4203;48.144;14.118;2024-03-02T00:02:44;5.30;99.90
8332;DHT22;4203;48.144;14.118;2024-03-02T00:05:32;6.10;99.90
8332;DHT22;4203;48.144;14.118;2024-03-02T00:08:13;6.30;99.90
8332;DHT22;4203;48.144;14.118;2024-03-02T00:11:02;6.10;99.90
8332;DHT22;4203;48.144;14.118;2024-03-02T00:13:54;6.10;99.90
8332;DHT22;4203;48.144;14.118;2024-03-02T00:16:41;6.00;99.90
8332;DHT22;4203;48.144;14.118;2024-03-02T00:19:41;5.20;99.90
8332;DHT22;4203;48.144;14.118;2024-03-02T00:22:34;6.00;99.90
8332;DHT22;4203;48.144;14.118;2024-03-02T00:25:25;6.00;99.90
8332;DHT22;4203;48.144;14.118;2024-03-02T00:28:17;5.90;99.90
8332;DHT22;4203;48.144;14.118;2024-03-02T00:30:57;5.90;99.90
8332;DHT22;4203;48.144;14.118;2024-03-02T00:33:42;6.00;99.90
8332;DHT22;4203;48.144;14.118;2024-03-02T00:36:33;6.00;99.90
8332;DHT22;4203;48.144;14.118;2024-03-02T00:39:09;5.50;99.90
8332;DHT22;4203;48.144;14.118;2024-03-02T00:41:57;5.90;99.90
8332;DHT22;4203;48.144;14.118;2024-03-02T00:44:28;5.90;99.90
8332;DHT22;4203;48.144;14.118;2024-03-02T00:47:04;5.90;99.90
8332;DHT22;4203;48.144;14.118;2024-03-02T00:49:49;5.90;99.90
8332;DHT22;4203;48.144;14.118;2024-03-02T00:52:32;4.20;99.90
8332;DHT22;4203;48.144;14.118;2024-03-02T00:55:07;5.70;99.90
8332;DHT22;4203;48.144;14.118;2024-03-02T00:57:50;5.10;99.90
8332;DHT22;4203;48.144;14.118;2024-03-02T01:00:37;5.80;99.90
8332;DHT22;4203;48.144;14.118;2024-03-02T01:03:10;6.90;99.90
8332;DHT22;4203;48.144;14.118;2024-03-02T01:05:46;5.50;99.90
8332;DHT22;4203;48.144;14.118;2024-03-02T01:11:51;5.30;99.90
8332;DHT22;4203;48.144;14.118;2024-03-02T01:14:22;4.30;99.90
8332;DHT22;4203;48.144;14.118;2024-03-02T01:16:51;5.70;99.90
8332;DHT22;4203;48.144;14.118;2024-03-02T01:19:24;6.70;99.90
8332;DHT22;4203;48.144;14.118;2024-03-02T01:22:01;7.00;99.90
8332;DHT22;4203;48.144;14.118;2024-03-02T01:25:16;5.80;99.90
8332;DHT22;4203;48.144;14.118;2024-03-02T01:27:48;5.70;99.90
8332;DHT22;4203;48.144;14.118;2024-03-02T01:30:30;5.00;99.90
8332;DHT22;4203;48.144;14.118;2024-03-02T01:35:58;5.80;99.90
8332;DHT22;4203;48.144;14.118;2024-03-02T01:39:13;5.80;99.90
8332;DHT22;4203;48.144;14.118;2024-03-02T01:41:58;5.60;99.90
8332;DHT22;4203;48.144;14.118;2024-03-02T01:47:31;6.20;99.90
8332;DHT22;4203;48.144;14.118;2024-03-02T01:53:27;5.80;99.90
8332;DHT22;4203;48.144;14.118;2024-03-02T01:56:30;5.70;99.90
8332;DHT22;4203;48.144;14.118;2024-03-02T01:59:21;5.70;99.90
8332;DHT22;4203;48.144;14.118;2024-03-02T02:02:12;5.60;99.90
8332;DHT22;4203;48.144;14.118;2024-03-02T02:04:44;5.70;99.90
8332;DHT22;4203;48.144;14.118;2024-03-02T02:07:25;5.70;99.90
8332;DHT22;4203;48.144;14.118;2024-03-02T02:10:21;6.80;99.90
8332;DHT22;4203;48.144;14.118;2024-03-02T02:16:35;5.50;99.90
8332;DHT22;4203;48.144;14.118;2024-03-02T02:19:16;5.70;99.90
8332;DHT22;4203;48.144;14.118;2024-03-02T02:21:57;4.90;99.90
8332;DHT22;4203;48.144;14.118;2024-03-02T02:25:00;5.60;99.90
8332;DHT22;4203;48.144;14.118;2024-03-02T02:27:34;4.60;99.90
8332;DHT22;4203;48.144;14.118;2024-03-02T02:30:35;5.60;99.90
8332;DHT22;4203;48.144;14.118;2024-03-02T02:33:09;5.50;99.90
8332;DHT22;4203;48.144;14.118;2024-03-02T02:35:43;5.50;99.90
8332;DHT22;4203;48.144;14.118;2024-03-02T02:38:23;6.30;99.90
8332;DHT22;4203;48.144;14.118;2024-03-02T02:41:09;5.50;99.90
8332;DHT22;4203;48.144;14.118;2024-03-02T02:43:58;5.50;99.90
8332;DHT22;4203;48.144;14.118;2024-03-02T02:46:36;5.70;99.90
8332;DHT22;4203;48.144;14.118;2024-03-02T02:49:24;5.50;99.90
8332;DHT22;4203;48.144;14.118;2024-03-02T02:52:15;5.50;99.90
8332;DHT22;4203;48.144;14.118;2024-03-02T02:54:55;4.80;99.90
8332;DHT22;4203;48.144;14.118;2024-03-02T02:57:28;5.50;99.90
8332;DHT22;4203;48.144;14.118;2024-03-02T03:00:29;5.40;99.90
8332;DHT22;4203;48.144;14.118;2024-03-02T03:02:58;5.40;99.90
8332;DHT22;4203;48.144;14.118;2024-03-02T03:05:38;5.30;99.90
8332;DHT22;4203;48.144;14.118;2024-03-02T03:08:16;4.70;99.90
8332;DHT22;4203;48.144;14.118;2024-03-02T03:11:09;5.30;99.90
8332;DHT22;4203;48.144;14.118;2024-03-02T03:14:07;5.20;99.90
8332;DHT22;4203;48.144;14.118;2024-03-02T03:17:08;5.20;99.90
8332;DHT22;4203;48.144;14.118;2024-03-02T03:19:44;5.10;99.90
8332;DHT22;4203;48.144;14.118;2024-03-02T03:22:42;5.10;99.90
8332;DHT22;4203;48.144;14.118;2024-03-02T03:25:42;5.00;99.90
8332;DHT22;4203;48.144;14.118;2024-03-02T03:41:49;4.90;99.90
8332;DHT22;4203;48.144;14.118;2024-03-02T03:44:35;5.40;99.90
8332;DHT22;4203;48.144;14.118;2024-03-02T03:47:46;4.30;99.90
8332;DHT22;4203;48.144;14.118;2024-03-02T03:50:21;5.00;99.90
8332;DHT22;4203;48.144;14.118;2024-03-02T03:53:00;4.70;99.90
8332;DHT22;4203;48.144;14.118;2024-03-02T04:05:44;5.80;99.90
8332;DHT22;4203;48.144;14.118;2024-03-02T04:08:30;5.10;99.90
8332;DHT22;4203;48.144;14.118;2024-03-02T04:11:22;5.10;99.90
8332;DHT22;4203;48.144;14.118;2024-03-02T04:14:10;5.30;99.90
8332;DHT22;4203;48.144;14.118;2024-03-02T04:16:50;5.10;99.90
8332;DHT22;4203;48.144;14.118;2024-03-02T04:19:32;5.10;99.90
8332;DHT22;4203;48.144;14.118;2024-03-02T04:22:44;5.20;99.90
8332;DHT22;4203;48.144;14.118;2024-03-02T04:25:28;6.20;99.90
8332;DHT22;4203;48.144;14.118;2024-03-02T04:28:13;5.10;99.90
8332;DHT22;4203;48.144;14.118;2024-03-02T04:31:15;4.30;99.90
8332;DHT22;4203;48.144;14.118;2024-03-02T04:34:00;5.20;99.90
8332;DHT22;4203;48.144;14.118;2024-03-02T04:37:05;4.30;99.90
8332;DHT22;4203;48.144;14.118;2024-03-02T04:39:54;3.20;99.90
8332;DHT22;4203;48.144;14.118;2024-03-02T04:46:12;4.40;99.90
8332;DHT22;4203;48.144;14.118;2024-03-02T04:49:02;5.20;99.90
8332;DHT22;4203;48.144;14.118;2024-03-02T04:51:46;5.20;99.90
8332;DHT22;4203;48.144;14.118;2024-03-02T04:54:36;5.20;99.90
8332;DHT22;4203;48.144;14.118;2024-03-02T04:57:53;6.20;99.90
8332;DHT22;4203;48.144;14.118;2024-03-02T05:00:39;5.10;99.90
8332;DHT22;4203;48.144;14.118;2024-03-02T05:03:49;5.20;99.90
8332;DHT22;4203;48.144;14.118;2024-03-02T05:06:31;5.20;99.90
8332;DHT22;4203;48.144;14.118;2024-03-02T05:12:38;4.50;99.90
8332;DHT22;4203;48.144;14.118;2024-03-02T05:15:40;5.20;99.90
8332;DHT22;4203;48.144;14.118;2024-03-02T05:18:14;4.90;99.90
8332;DHT22;4203;48.144;14.118;2024-03-02T05:20:44;6.10;99.90
8332;DHT22;4203;48.144;14.118;2024-03-02T05:27:07;4.60;99.90
8332;DHT22;4203;48.144;14.118;2024-03-02T05:29:59;5.30;99.90
8332;DHT22;4203;48.144;14.118;2024-03-02T05:32:39;5.20;99.90
8332;DHT22;4203;48.144;14.118;2024-03-02T05:35:52;5.10;99.90
8332;DHT22;4203;48.144;14.118;2024-03-02T05:38:37;5.30;99.90
8332;DHT22;4203;48.144;14.118;2024-03-02T05:41:51;5.20;99.90
8332;DHT22;4203;48.144;14.118;2024-03-02T05:44:39;2.90;99.90
8332;DHT22;4203;48.144;14.118;2024-03-02T05:47:39;5.30;99.90
8332;DHT22;4203;48.144;14.118;2024-03-02T05:50:13;4.90;99.90
8332;DHT22;4203;48.144;14.118;2024-03-02T05:52:46;5.30;99.90
8332;DHT22;4203;48.144;14.118;2024-03-02T05:55:29;5.40;99.90
8332;DHT22;4203;48.144;14.118;2024-03-02T05:58:37;5.40;99.90
8332;DHT22;4203;48.144;14.118;2024-03-02T06:01:43;5.30;99.90
8332;DHT22;4203;48.144;14.118;2024-03-02T06:04:38;5.40;99.90
8332;DHT22;4203;48.144;14.118;2024-03-02T06:07:25;5.30;99.90
8332;DHT22;4203;48.144;14.118;2024-03-02T06:10:00;5.40;99.90
8332;DHT22;4203;48.144;14.118;2024-03-02T06:12:31;5.40;99.90
8332;DHT22;4203;48.144;14.118;2024-03-02T06:15:40;4.40;99.90
8332;DHT22;4203;48.144;14.118;2024-03-02T06:18:11;5.10;99.90
8332;DHT22;4203;48.144;14.118;2024-03-02T06:20:59;5.50;99.90
8332;DHT22;4203;48.144;14.118;2024-03-02T06:23:32;5.50;99.90
8332;DHT22;4203;48.144;14.118;2024-03-02T06:26:22;5.60;99.90
8332;DHT22;4203;48.144;14.118;2024-03-02T06:29:02;5.60;99.90
8332;DHT22;4203;48.144;14.118;2024-03-02T06:32:00;5.70;99.90
8332;DHT22;4203;48.144;14.118;2024-03-02T06:35:08;5.60;99.90
8332;DHT22;4203;48.144;14.118;2024-03-02T06:38:06;4.20;99.90
8332;DHT22;4203;48.144;14.118;2024-03-02T06:41:13;5.70;99.90
8332;DHT22;4203;48.144;14.118;2024-03-02T06:44:06;5.70;99.90
8332;DHT22;4203;48.144;14.118;2024-03-02T06:46:50;6.10;99.90
8332;DHT22;4203;48.144;14.118;2024-03-02T06:49:53;4.00;99.90
8332;DHT22;4203;48.144;14.118;2024-03-02T07:06:23;5.50;99.90
8332;DHT22;4203;48.144;14.118;2024-03-02T07:09:20;6.10;99.90
8332;DHT22;4203;48.144;14.118;2024-03-02T07:11:56;6.20;99.90
8332;DHT22;4203;48.144;14.118;2024-03-02T07:18:01;6.10;99.90
8332;DHT22;4203;48.144;14.118;2024-03-02T07:21:11;6.30;99.90
8332;DHT22;4203;48.144;14.118;2024-03-02T07:27:29;5.90;99.90
8332;DHT22;4203;48.144;14.118;2024-03-02T07:33:36;6.40;99.90
8332;DHT22;4203;48.144;14.118;2024-03-02T07:36:31;6.50;99.90
8332;DHT22;4203;48.144;14.118;2024-03-02T07:39:21;6.00;99.90
8332;DHT22;4203;48.144;14.118;2024-03-02T07:42:10;5.50;99.90
8332;DHT22;4203;48.144;14.118;2024-03-02T07:50:35;8.40;99.90
8332;DHT22;4203;48.144;14.118;2024-03-02T07:53:28;6.70;99.90
8332;DHT22;4203;48.144;14.118;2024-03-02T07:56:19;5.30;99.90
8332;DHT22;4203;48.144;14.118;2024-03-02T07:59:06;5.50;99.90
8332;DHT22;4203;48.144;14.118;2024-03-02T08:02:05;7.00;99.90
8332;DHT22;4203;48.144;14.118;2024-03-02T08:04:52;6.00;99.90
8332;DHT22;4203;48.144;14.118;2024-03-02T08:07:25;7.00;99.90
8332;DHT22;4203;48.144;14.118;2024-03-02T08:10:10;6.10;99.90
8332;DHT22;4203;48.144;14.118;2024-03-02T08:12:53;7.50;99.90
8332;DHT22;4203;48.144;14.118;2024-03-02T08:16:00;7.40;99.90
8332;DHT22;4203;48.144;14.118;2024-03-02T08:19:35;7.50;99.90
8332;DHT22;4203;48.144;14.118;2024-03-02T08:22:38;7.60;99.90
8332;DHT22;4203;48.144;14.118;2024-03-02T08:25:43;7.70;99.90
8332;DHT22;4203;48.144;14.118;2024-03-02T08:31:54;7.70;99.90
8332;DHT22;4203;48.144;14.118;2024-03-02T08:37:31;7.30;99.90
8332;DHT22;4203;48.144;14.118;2024-03-02T08:40:38;7.90;99.90
8332;DHT22;4203;48.144;14.118;2024-03-02T08:43:34;8.10;99.90
8332;DHT22;4203;48.144;14.118;2024-03-02T08:46:36;8.10;99.90
8332;DHT22;4203;48.144;14.118;2024-03-02T08:55:51;8.50;99.90
8332;DHT22;4203;48.144;14.118;2024-03-02T08:58:37;8.50;99.90
8332;DHT22;4203;48.144;14.118;2024-03-02T09:01:16;8.30;99.90
8332;DHT22;4203;48.144;14.118;2024-03-02T09:03:53;8.40;99.90
8332;DHT22;4203;48.144;14.118;2024-03-02T09:06:39;8.20;99.90
8332;DHT22;4203;48.144;14.118;2024-03-02T09:09:27;8.30;99.90
8332;DHT22;4203;48.144;14.118;2024-03-02T09:12:21;8.20;99.90
8332;DHT22;4203;48.144;14.118;2024-03-02T09:15:28;8.60;99.90
8332;DHT22;4203;48.144;14.118;2024-03-02T09:18:29;7.90;99.90
8332;DHT22;4203;48.144;14.118;2024-03-02T09:21:19;8.00;99.90
8332;DHT22;4203;48.144;14.118;2024-03-02T09:24:19;9.70;99.90
8332;DHT22;4203;48.144;14.118;2024-03-02T09:27:26;8.10;99.90
8332;DHT22;4203;48.144;14.118;2024-03-02T09:30:21;8.40;99.90
8332;DHT22;4203;48.144;14.118;2024-03-02T09:36:28;8.60;99.90
8332;DHT22;4203;48.144;14.118;2024-03-02T09:39:28;8.70;99.90
8332;DHT22;4203;48.144;14.118;2024-03-02T10:16:43;10.90;99.90
8332;DHT22;4203;48.144;14.118;2024-03-02T10:19:32;10.90;99.90
8332;DHT22;4203;48.144;14.118;2024-03-02T10:22:16;11.00;99.90
8332;DHT22;4203;48.144;14.118;2024-03-02T10:24:44;11.00;99.90
8332;DHT22;4203;48.144;14.118;2024-03-02T10:27:16;11.00;99.90
8332;DHT22;4203;48.144;14.118;2024-03-02T10:29:46;11.10;99.90
8332;DHT22;4203;48.144;14.118;2024-03-02T10:32:15;11.10;99.90
8332;DHT22;4203;48.144;14.118;2024-03-02T10:34:44;11.20;99.90
8332;DHT22;4203;48.144;14.118;2024-03-02T10:37:12;11.20;99.90
8332;DHT22;4203;48.144;14.118;2024-03-02T10:39:40;11.20;99.90
8332;DHT22;4203;48.144;14.118;2024-03-02T10:45:43;10.80;99.90
8332;DHT22;4203;48.144;14.118;2024-03-02T10:48:36;10.70;99.90
8332;DHT22;4203;48.144;14.118;2024-03-02T10:51:04;12.10;99.90
8332;DHT22;4203;48.144;14.118;2024-03-02T10:53:31;11.00;99.90
8332;DHT22;4203;48.144;14.118;2024-03-02T10:56:00;11.20;99.90
8332;DHT22;4203;48.144;14.118;2024-03-02T10:58:32;11.10;99.90
8332;DHT22;4203;48.144;14.118;2024-03-02T11:01:02;11.30;99.90
8332;DHT22;4203;48.144;14.118;2024-03-02T11:03:33;11.30;99.90
8332;DHT22;4203;48.144;14.118;2024-03-02T11:06:03;11.50;99.90
8332;DHT22;4203;48.144;14.118;2024-03-02T11:08:34;11.80;99.90
8332;DHT22;4203;48.144;14.118;2024-03-02T11:11:07;12.10;99.90
8332;DHT22;4203;48.144;14.118;2024-03-02T11:13:34;12.30;99.90
8332;DHT22;4203;48.144;14.118;2024-03-02T11:16:06;12.20;99.90
8332;DHT22;4203;48.144;14.118;2024-03-02T11:18:36;12.30;99.90
8332;DHT22;4203;48.144;14.118;2024-03-02T11:21:06;12.50;99.90
8332;DHT22;4203;48.144;14.118;2024-03-02T11:23:34;12.60;99.90
8332;DHT22;4203;48.144;14.118;2024-03-02T11:29:45;12.40;99.90
8332;DHT22;4203;48.144;14.118;2024-03-02T11:32:16;12.50;99.90
8332;DHT22;4203;48.144;14.118;2024-03-02T11:34:46;12.50;99.90
8332;DHT22;4203;48.144;14.118;2024-03-02T11:37:16;12.40;99.90
8332;DHT22;4203;48.144;14.118;2024-03-02T11:39:44;12.80;99.90
8332;DHT22;4203;48.144;14.118;2024-03-02T11:42:12;13.30;99.90
8332;DHT22;4203;48.144;14.118;2024-03-02T11:44:43;13.80;99.90
8332;DHT22;4203;48.144;14.118;2024-03-02T11:47:13;14.20;99.90
8332;DHT22;4203;48.144;14.118;2024-03-02T11:49:43;15.10;99.90
8332;DHT22;4203;48.144;14.118;2024-03-02T11:52:11;15.40;99.90
8332;DHT22;4203;48.144;14.118;2024-03-02T11:54:43;15.70;99.90
8332;DHT22;4203;48.144;14.118;2024-03-02T11:57:15;15.80;99.90
8332;DHT22;4203;48.144;14.118;2024-03-02T11:59:42;15.30;99.90
8332;DHT22;4203;48.144;14.118;2024-03-02T12:02:15;15.00;99.90
8332;DHT22;4203;48.144;14.118;2024-03-02T12:04:44;15.60;99.90
8332;DHT22;4203;48.144;14.118;2024-03-02T12:07:12;15.60;99.90
8332;DHT22;4203;48.144;14.118;2024-03-02T12:09:46;15.60;99.90
8332;DHT22;4203;48.144;14.118;2024-03-02T12:12:13;16.00;99.90
8332;DHT22;4203;48.144;14.118;2024-03-02T12:14:51;16.20;99.90
8332;DHT22;4203;48.144;14.118;2024-03-02T12:17:21;16.00;99.90
8332;DHT22;4203;48.144;14.118;2024-03-02T12:19:48;15.50;99.90
8332;DHT22;4203;48.144;14.118;2024-03-02T12:22:16;14.90;99.90
8332;DHT22;4203;48.144;14.118;2024-03-02T12:24:44;14.80;99.90
8332;DHT22;4203;48.144;14.118;2024-03-02T12:27:15;14.70;99.90
8332;DHT22;4203;48.144;14.118;2024-03-02T12:29:44;14.40;99.90
8332;DHT22;4203;48.144;14.118;2024-03-02T12:32:11;14.00;99.90
8332;DHT22;4203;48.144;14.118;2024-03-02T12:34:38;13.90;99.90
8332;DHT22;4203;48.144;14.118;2024-03-02T12:37:06;13.90;99.90
8332;DHT22;4203;48.144;14.118;2024-03-02T12:39:33;13.70;99.90
8332;DHT22;4203;48.144;14.118;2024-03-02T12:42:03;13.90;99.90
8332;DHT22;4203;48.144;14.118;2024-03-02T12:44:31;14.10;99.90
8332;DHT22;4203;48.144;14.118;2024-03-02T12:46:59;14.70;99.90
8332;DHT22;4203;48.144;14.118;2024-03-02T12:49:26;14.70;99.90
8332;DHT22;4203;48.144;14.118;2024-03-02T12:51:54;15.00;99.90
8332;DHT22;4203;48.144;14.118;2024-03-02T12:54:23;15.50;99.90
8332;DHT22;4203;48.144;14.118;2024-03-02T12:56:51;15.60;99.90
8332;DHT22;4203;48.144;14.118;2024-03-02T12:59:20;15.80;99.90
8332;DHT22;4203;48.144;14.118;2024-03-02T13:01:53;15.40;99.90
8332;DHT22;4203;48.144;14.118;2024-03-02T13:04:24;15.70;99.90
8332;DHT22;4203;48.144;14.118;2024-03-02T13:06:52;16.00;99.90
8332;DHT22;4203;48.144;14.118;2024-03-02T13:09:19;16.20;99.90
8332;DHT22;4203;48.144;14.118;2024-03-02T13:11:47;16.40;99.90
8332;DHT22;4203;48.144;14.118;2024-03-02T13:14:14;16.10;99.90
8332;DHT22;4203;48.144;14.118;2024-03-02T13:16:41;16.20;99.90
8332;DHT22;4203;48.144;14.118;2024-03-02T13:19:11;16.30;99.90
8332;DHT22;4203;48.144;14.118;2024-03-02T13:21:38;16.60;99.90
8332;DHT22;4203;48.144;14.118;2024-03-02T13:24:06;16.70;99.90
8332;DHT22;4203;48.144;14.118;2024-03-02T13:26:34;16.90;99.90
8332;DHT22;4203;48.144;14.118;2024-03-02T13:29:01;17.20;99.90
8332;DHT22;4203;48.144;14.118;2024-03-02T13:31:28;17.50;99.90
8332;DHT22;4203;48.144;14.118;2024-03-02T13:33:55;18.00;99.90
8332;DHT22;4203;48.144;14.118;2024-03-02T13:36:24;18.60;99.90
8332;DHT22;4203;48.144;14.118;2024-03-02T13:38:51;19.00;99.90
8332;DHT22;4203;48.144;14.118;2024-03-02T13:41:19;19.30;99.90
8332;DHT22;4203;48.144;14.118;2024-03-02T13:43:46;19.70;99.90
8332;DHT22;4203;48.144;14.118;2024-03-02T13:46:14;19.90;99.90
8332;DHT22;4203;48.144;14.118;2024-03-02T13:48:41;19.80;99.90
8332;DHT22;4203;48.144;14.118;2024-03-02T13:51:08;20.00;99.90
8332;DHT22;4203;48.144;14.118;2024-03-02T13:53:37;20.40;99.90
8332;DHT22;4203;48.144;14.118;2024-03-02T13:56:04;20.40;99.90
8332;DHT22;4203;48.144;14.118;2024-03-02T13:58:32;20.70;99.90
8332;DHT22;4203;48.144;14.118;2024-03-02T14:00:59;20.90;99.90
8332;DHT22;4203;48.144;14.118;2024-03-02T14:03:27;20.90;99.90
8332;DHT22;4203;48.144;14.118;2024-03-02T14:05:54;21.40;99.90
8332;DHT22;4203;48.144;14.118;2024-03-02T14:08:22;21.90;99.90
8332;DHT22;4203;48.144;14.118;2024-03-02T14:10:51;22.20;99.60
8332;DHT22;4203;48.144;14.118;2024-03-02T14:13:18;21.90;98.70
8332;DHT22;4203;48.144;14.118;2024-03-02T14:15:45;22.00;99.50
8332;DHT22;4203;48.144;14.118;2024-03-02T14:18:12;22.20;98.50
8332;DHT22;4203;48.144;14.118;2024-03-02T14:20:40;21.70;97.60
8332;DHT22;4203;48.144;14.118;2024-03-02T14:23:08;21.40;98.20
8332;DHT22;4203;48.144;14.118;2024-03-02T14:25:36;21.40;97.50
8332;DHT22;4203;48.144;14.118;2024-03-02T14:28:05;21.70;97.20
8332;DHT22;4203;48.144;14.118;2024-03-02T14:30:32;21.50;96.30
8332;DHT22;4203;48.144;14.118;2024-03-02T14:32:59;20.50;97.60
8332;DHT22;4203;48.144;14.118;2024-03-02T14:35:27;18.90;99.20
8332;DHT22;4203;48.144;14.118;2024-03-02T14:37:54;17.30;99.90
8332;DHT22;4203;48.144;14.118;2024-03-02T14:40:23;16.50;99.90
8332;DHT22;4203;48.144;14.118;2024-03-02T14:42:52;15.40;99.90
8332;DHT22;4203;48.144;14.118;2024-03-02T14:45:21;14.80;99.90
8332;DHT22;4203;48.144;14.118;2024-03-02T14:47:49;14.30;99.90
8332;DHT22;4203;48.144;14.118;2024-03-02T14:50:16;14.00;99.90
8332;DHT22;4203;48.144;14.118;2024-03-02T14:52:44;13.60;99.90
8332;DHT22;4203;48.144;14.118;2024-03-02T14:55:12;13.40;99.90
8332;DHT22;4203;48.144;14.118;2024-03-02T14:57:39;13.30;99.90
8332;DHT22;4203;48.144;14.118;2024-03-02T15:00:07;13.20;99.90
8332;DHT22;4203;48.144;14.118;2024-03-02T15:02:38;13.00;99.90
8332;DHT22;4203;48.144;14.118;2024-03-02T15:05:06;12.70;99.90
8332;DHT22;4203;48.144;14.118;2024-03-02T15:07:33;12.60;99.90
8332;DHT22;4203;48.144;14.118;2024-03-02T15:10:00;12.50;99.90
8332;DHT22;4203;48.144;14.118;2024-03-02T15:12:30;12.40;99.90
8332;DHT22;4203;48.144;14.118;2024-03-02T15:14:57;12.30;99.90
8332;DHT22;4203;48.144;14.118;2024-03-02T15:18:04;12.10;99.90
8332;DHT22;4203;48.144;14.118;2024-03-02T15:20:40;11.90;99.90
8332;DHT22;4203;48.144;14.118;2024-03-02T15:23:12;11.60;99.90
8332;DHT22;4203;48.144;14.118;2024-03-02T15:25:57;11.50;99.90
8332;DHT22;4203;48.144;14.118;2024-03-02T15:28:25;11.60;99.90
8332;DHT22;4203;48.144;14.118;2024-03-02T15:30:52;11.60;99.90
8332;DHT22;4203;48.144;14.118;2024-03-02T15:33:47;11.50;99.90
8332;DHT22;4203;48.144;14.118;2024-03-02T15:43:37;11.30;99.90
8332;DHT22;4203;48.144;14.118;2024-03-02T15:46:17;11.20;99.90
8332;DHT22;4203;48.144;14.118;2024-03-02T16:25:06;9.70;99.90
8332;DHT22;4203;48.144;14.118;2024-03-02T16:28:40;10.20;99.90
8332;DHT22;4203;48.144;14.118;2024-03-02T16:31:40;8.90;99.90
8332;DHT22;4203;48.144;14.118;2024-03-02T16:38:16;9.90;99.90
8332;DHT22;4203;48.144;14.118;2024-03-02T16:44:29;9.70;99.90
8332;DHT22;4203;48.144;14.118;2024-03-02T16:47:27;9.60;99.90
8332;DHT22;4203;48.144;14.118;2024-03-02T16:50:25;9.60;99.90
8332;DHT22;4203;48.144;14.118;2024-03-02T16:53:31;10.80;99.90
8332;DHT22;4203;48.144;14.118;2024-03-02T16:56:48;9.40;99.90
8332;DHT22;4203;48.144;14.118;2024-03-02T17:00:21;9.30;99.90
8332;DHT22;4203;48.144;14.118;2024-03-02T17:03:21;10.00;99.90
8332;DHT22;4203;48.144;14.118;2024-03-02T17:06:42;9.30;99.90
8332;DHT22;4203;48.144;14.118;2024-03-02T17:09:49;6.80;99.90
8332;DHT22;4203;48.144;14.118;2024-03-02T17:36:12;7.70;99.90
8332;DHT22;4203;48.144;14.118;2024-03-02T17:39:19;8.40;99.90
8332;DHT22;4203;48.144;14.118;2024-03-02T17:42:19;8.30;99.90
8332;DHT22;4203;48.144;14.118;2024-03-02T17:44:59;8.30;99.90
8332;DHT22;4203;48.144;14.118;2024-03-02T17:48:08;8.10;99.90
8332;DHT22;4203;48.144;14.118;2024-03-02T17:50:52;7.00;99.90
8332;DHT22;4203;48.144;14.118;2024-03-02T18:00:14;8.00;99.90
8332;DHT22;4203;48.144;14.118;2024-03-02T18:02:57;7.90;99.90
8332;DHT22;4203;48.144;14.118;2024-03-02T18:05:43;7.80;99.90
8332;DHT22;4203;48.144;14.118;2024-03-02T18:08:29;7.10;99.90
8332;DHT22;4203;48.144;14.118;2024-03-02T18:11:15;8.90;99.90
8332;DHT22;4203;48.144;14.118;2024-03-02T18:14:03;7.90;99.90
8332;DHT22;4203;48.144;14.118;2024-03-02T18:23:34;7.70;99.90
8332;DHT22;4203;48.144;14.118;2024-03-02T18:26:37;7.60;99.90
8332;DHT22;4203;48.144;14.118;2024-03-02T18:29:38;8.70;99.90
8332;DHT22;4203;48.144;14.118;2024-03-02T18:32:47;8.20;99.90
8332;DHT22;4203;48.144;14.118;2024-03-02T18:35:32;6.50;99.90
8332;DHT22;4203;48.144;14.118;2024-03-02T18:38:13;7.70;99.90
8332;DHT22;4203;48.144;14.118;2024-03-02T18:41:09;7.40;99.90
8332;DHT22;4203;48.144;14.118;2024-03-02T18:43:46;7.40;99.90
8332;DHT22;4203;48.144;14.118;2024-03-02T18:46:19;6.70;99.90
8332;DHT22;4203;48.144;14.118;2024-03-02T18:52:10;7.30;99.90
8332;DHT22;4203;48.144;14.118;2024-03-02T18:54:41;7.20;99.90
8332;DHT22;4203;48.144;14.118;2024-03-02T18:57:27;7.20;99.90
8332;DHT22;4203;48.144;14.118;2024-03-02T19:00:28;7.30;99.90
8332;DHT22;4203;48.144;14.118;2024-03-02T19:03:01;7.00;99.90
8332;DHT22;4203;48.144;14.118;2024-03-02T19:05:36;7.30;99.90
8332;DHT22;4203;48.144;14.118;2024-03-02T19:08:23;6.40;99.90
8332;DHT22;4203;48.144;14.118;2024-03-02T19:11:04;7.00;99.90
8332;DHT22;4203;48.144;14.118;2024-03-02T19:14:03;7.20;99.90
8332;DHT22;4203;48.144;14.118;2024-03-02T19:16:31;6.20;99.90
8332;DHT22;4203;48.144;14.118;2024-03-02T19:19:17;5.40;99.90
8332;DHT22;4203;48.144;14.118;2024-03-02T19:22:02;7.20;99.90
8332;DHT22;4203;48.144;14.118;2024-03-02T19:24:37;5.70;99.90
8332;DHT22;4203;48.144;14.118;2024-03-02T19:27:23;7.20;99.90
8332;DHT22;4203;48.144;14.118;2024-03-02T19:30:34;6.50;99.90
8332;DHT22;4203;48.144;14.118;2024-03-02T19:33:07;4.80;99.90
8332;DHT22;4203;48.144;14.118;2024-03-02T19:35:50;6.20;99.90
8332;DHT22;4203;48.144;14.118;2024-03-02T19:38:59;7.20;99.90
8332;DHT22;4203;48.144;14.118;2024-03-02T19:41:40;7.00;99.90
8332;DHT22;4203;48.144;14.118;2024-03-02T19:44:15;7.70;99.90
8332;DHT22;4203;48.144;14.118;2024-03-02T19:46:53;7.00;99.90
8332;DHT22;4203;48.144;14.118;2024-03-02T19:49:39;7.00;99.90
8332;DHT22;4203;48.144;14.118;2024-03-02T19:52:28;6.70;99.90
8332;DHT22;4203;48.144;14.118;2024-03-02T19:55:25;7.10;99.90
8332;DHT22;4203;48.144;14.118;2024-03-02T19:57:57;7.00;99.90
8332;DHT22;4203;48.144;14.118;2024-03-02T20:00:38;6.90;99.90
8332;DHT22;4203;48.144;14.118;2024-03-02T20:03:25;6.90;99.90
8332;DHT22;4203;48.144;14.118;2024-03-02T20:06:06;6.90;99.90
8332;DHT22;4203;48.144;14.118;2024-03-02T20:11:50;6.80;99.90
8332;DHT22;4203;48.144;14.118;2024-03-02T20:14:37;6.30;99.90
8332;DHT22;4203;48.144;14.118;2024-03-02T20:17:09;6.60;99.90
8332;DHT22;4203;48.144;14.118;2024-03-02T20:20:08;8.10;99.90
8332;DHT22;4203;48.144;14.118;2024-03-02T20:22:48;6.50;99.90
8332;DHT22;4203;48.144;14.118;2024-03-02T20:25:19;6.40;99.90
8332;DHT22;4203;48.144;14.118;2024-03-02T20:31:12;7.70;99.90
8332;DHT22;4203;48.144;14.118;2024-03-02T20:36:43;6.30;99.90
8332;DHT22;4203;48.144;14.118;2024-03-02T20:39:27;6.00;99.90
8332;DHT22;4203;48.144;14.118;2024-03-02T20:42:08;6.10;99.90
8332;DHT22;4203;48.144;14.118;2024-03-02T20:44:42;4.70;99.90
8332;DHT22;4203;48.144;14.118;2024-03-02T20:47:20;4.60;99.90
8332;DHT22;4203;48.144;14.118;2024-03-02T20:50:01;5.90;99.90
8332;DHT22;4203;48.144;14.118;2024-03-02T20:55:50;5.70;99.90
8332;DHT22;4203;48.144;14.118;2024-03-02T20:58:24;5.60;99.90
8332;DHT22;4203;48.144;14.118;2024-03-02T21:00:54;4.60;99.90
8332;DHT22;4203;48.144;14.118;2024-03-02T21:03:33;5.50;99.90
8332;DHT22;4203;48.144;14.118;2024-03-02T21:06:06;5.30;99.90
8332;DHT22;4203;48.144;14.118;2024-03-02T21:09:07;5.30;99.90
8332;DHT22;4203;48.144;14.118;2024-03-02T21:12:01;5.20;99.90
8332;DHT22;4203;48.144;14.118;2024-03-02T21:14:52;5.30;99.90
8332;DHT22;4203;48.144;14.118;2024-03-02T21:17:46;5.20;99.90
8332;DHT22;4203;48.144;14.118;2024-03-02T21:20:38;5.80;99.90
8332;DHT22;4203;48.144;14.118;2024-03-02T21:26:42;3.70;99.90
8332;DHT22;4203;48.144;14.118;2024-03-02T21:32:46;5.30;99.90
8332;DHT22;4203;48.144;14.118;2024-03-02T21:35:33;6.50;99.90
8332;DHT22;4203;48.144;14.118;2024-03-02T21:38:16;5.20;99.90
8332;DHT22;4203;48.144;14.118;2024-03-02T21:40:47;5.10;99.90
8332;DHT22;4203;48.144;14.118;2024-03-02T21:43:24;6.20;99.90